sensor_id;sensor_type;location;lat;lon;timestamp;P1;durP1;ratioP1;P2;durP2;ratioP2
70444;SDS011;57902;49.638;11.070;2022-12-18T00:01:13;30.95;;;10.85;;
70444;SDS011;57902;49.638;11.070;2022-12-18T00:03:44;27.23;;;8.80;;
70444;SDS011;57902;49.638;11.070;2022-12-18T00:06:12;28.63;;;9.65;;
70444;SDS011;57902;49.638;11.070;2022-12-18T00:08:40;32.20;;;10.02;;
70444;SDS011;57902;49.638;11.070;2022-12-18T00:11:08;27.95;;;9.80;;
70444;SDS011;57902;49.638;11.070;2022-12-18T00:13:38;36.58;;;11.73;;
70444;SDS011;57902;49.638;11.070;2022-12-18T00:16:07;31.42;;;10.23;;
70444;SDS011;57902;49.638;11.070;2022-12-18T00:18:35;30.02;;;10.35;;
70444;SDS011;57902;49.638;11.070;2022-12-18T00:21:03;35.40;;;9.70;;
70444;SDS011;57902;49.638;11.070;2022-12-18T00:23:32;27.90;;;8.95;;
70444;SDS011;57902;49.638;11.070;2022-12-18T00:26:01;31.92;;;10.00;;
70444;SDS011;57902;49.638;11.070;2022-12-18T00:28:29;29.17;;;10.23;;
70444;SDS011;57902;49.638;11.070;2022-12-18T00:31:06;26.05;;;9.18;;
70444;SDS011;57902;49.638;11.070;2022-12-18T00:33:36;29.02;;;9.35;;
70444;SDS011;57902;49.638;11.070;2022-12-18T00:36:04;31.27;;;9.02;;
70444;SDS011;57902;49.638;11.070;2022-12-18T00:38:32;24.73;;;8.52;;
70444;SDS011;57902;49.638;11.070;2022-12-18T00:40:59;31.27;;;9.43;;
70444;SDS011;57902;49.638;11.070;2022-12-18T00:43:26;21.63;;;8.30;;
70444;SDS011;57902;49.638;11.070;2022-12-18T00:45:53;23.80;;;8.68;;
70444;SDS011;57902;49.638;11.070;2022-12-18T00:48:20;35.35;;;9.55;;
70444;SDS011;57902;49.638;11.070;2022-12-18T00:50:48;30.98;;;8.95;;
70444;SDS011;57902;49.638;11.070;2022-12-18T00:53:15;26.52;;;8.68;;
70444;SDS011;57902;49.638;11.070;2022-12-18T00:55:42;29.90;;;8.50;;
70444;SDS011;57902;49.638;11.070;2022-12-18T00:58:09;28.65;;;8.30;;
70444;SDS011;57902;49.638;11.070;2022-12-18T01:00:37;25.27;;;8.07;;
70444;SDS011;57902;49.638;11.070;2022-12-18T01:03:04;26.05;;;8.45;;
70444;SDS011;57902;49.638;11.070;2022-12-18T01:05:32;29.60;;;8.93;;
70444;SDS011;57902;49.638;11.070;2022-12-18T01:07:58;32.78;;;8.95;;
70444;SDS011;57902;49.638;11.070;2022-12-18T01:10:26;31.33;;;9.18;;
70444;SDS011;57902;49.638;11.070;2022-12-18T01:12:52;23.20;;;8.18;;
70444;SDS011;57902;49.638;11.070;2022-12-18T01:15:19;23.70;;;9.18;;
70444;SDS011;57902;49.638;11.070;2022-12-18T01:17:46;24.92;;;7.68;;
70444;SDS011;57902;49.638;11.070;2022-12-18T01:20:13;26.00;;;8.82;;
70444;SDS011;57902;49.638;11.070;2022-12-18T01:22:40;21.50;;;7.90;;
70444;SDS011;57902;49.638;11.070;2022-12-18T01:25:06;27.45;;;8.45;;
70444;SDS011;57902;49.638;11.070;2022-12-18T01:27:33;25.42;;;8.10;;
70444;SDS011;57902;49.638;11.070;2022-12-18T01:30:00;26.75;;;7.60;;
70444;SDS011;57902;49.638;11.070;2022-12-18T01:32:28;28.13;;;7.80;;
70444;SDS011;57902;49.638;11.070;2022-12-18T01:37:22;26.95;;;7.22;;
70444;SDS011;57902;49.638;11.070;2022-12-18T01:39:49;24.50;;;8.27;;
70444;SDS011;57902;49.638;11.070;2022-12-18T01:42:16;27.65;;;7.28;;
70444;SDS011;57902;49.638;11.070;2022-12-18T01:45:03;27.15;;;8.32;;
70444;SDS011;57902;49.638;11.070;2022-12-18T01:50:15;28.73;;;9.45;;
70444;SDS011;57902;49.638;11.070;2022-12-18T01:52:48;29.80;;;8.73;;
70444;SDS011;57902;49.638;11.070;2022-12-18T01:55:18;24.23;;;9.57;;
70444;SDS011;57902;49.638;11.070;2022-12-18T01:57:49;21.42;;;7.47;;
70444;SDS011;57902;49.638;11.070;2022-12-18T02:00:19;25.00;;;8.63;;
70444;SDS011;57902;49.638;11.070;2022-12-18T02:02:46;25.80;;;8.80;;
70444;SDS011;57902;49.638;11.070;2022-12-18T02:05:15;24.92;;;9.23;;
70444;SDS011;57902;49.638;11.070;2022-12-18T02:07:52;33.17;;;10.55;;
70444;SDS011;57902;49.638;11.070;2022-12-18T02:16:03;30.50;;;9.50;;
70444;SDS011;57902;49.638;11.070;2022-12-18T02:18:40;30.98;;;8.95;;
70444;SDS011;57902;49.638;11.070;2022-12-18T02:21:23;22.85;;;8.55;;
70444;SDS011;57902;49.638;11.070;2022-12-18T02:26:47;30.38;;;8.90;;
70444;SDS011;57902;49.638;11.070;2022-12-18T02:29:18;27.48;;;8.85;;
70444;SDS011;57902;49.638;11.070;2022-12-18T02:31:50;25.15;;;8.45;;
70444;SDS011;57902;49.638;11.070;2022-12-18T02:34:19;28.13;;;8.73;;
70444;SDS011;57902;49.638;11.070;2022-12-18T02:36:50;26.08;;;9.13;;
70444;SDS011;57902;49.638;11.070;2022-12-18T02:39:19;27.05;;;8.95;;
70444;SDS011;57902;49.638;11.070;2022-12-18T02:41:48;28.90;;;10.57;;
70444;SDS011;57902;49.638;11.070;2022-12-18T02:44:14;26.38;;;8.80;;
70444;SDS011;57902;49.638;11.070;2022-12-18T02:46:42;39.13;;;8.30;;
70444;SDS011;57902;49.638;11.070;2022-12-18T02:52:20;30.65;;;8.63;;
70444;SDS011;57902;49.638;11.070;2022-12-18T03:04:08;24.02;;;8.77;;
70444;SDS011;57902;49.638;11.070;2022-12-18T03:06:25;25.45;;;7.90;;
70444;SDS011;57902;49.638;11.070;2022-12-18T03:09:01;24.23;;;7.95;;
70444;SDS011;57902;49.638;11.070;2022-12-18T03:11:32;21.10;;;7.53;;
70444;SDS011;57902;49.638;11.070;2022-12-18T03:14:21;23.42;;;7.30;;
70444;SDS011;57902;49.638;11.070;2022-12-18T03:16:52;30.52;;;7.80;;
70444;SDS011;57902;49.638;11.070;2022-12-18T03:19:25;24.33;;;8.55;;
70444;SDS011;57902;49.638;11.070;2022-12-18T03:21:56;24.52;;;8.07;;
70444;SDS011;57902;49.638;11.070;2022-12-18T03:24:25;24.25;;;8.20;;
70444;SDS011;57902;49.638;11.070;2022-12-18T03:26:54;23.85;;;7.95;;
70444;SDS011;57902;49.638;11.070;2022-12-18T03:29:36;20.70;;;6.68;;
70444;SDS011;57902;49.638;11.070;2022-12-18T03:32:15;29.70;;;8.93;;
70444;SDS011;57902;49.638;11.070;2022-12-18T03:34:50;25.25;;;8.20;;
70444;SDS011;57902;49.638;11.070;2022-12-18T03:37:19;28.90;;;8.68;;
70444;SDS011;57902;49.638;11.070;2022-12-18T03:39:46;31.77;;;8.98;;
70444;SDS011;57902;49.638;11.070;2022-12-18T03:50:47;23.08;;;8.13;;
70444;SDS011;57902;49.638;11.070;2022-12-18T03:55:56;32.53;;;7.90;;
70444;SDS011;57902;49.638;11.070;2022-12-18T03:58:25;21.50;;;8.35;;
70444;SDS011;57902;49.638;11.070;2022-12-18T04:00:54;28.40;;;8.45;;
70444;SDS011;57902;49.638;11.070;2022-12-18T04:05:52;21.08;;;6.63;;
70444;SDS011;57902;49.638;11.070;2022-12-18T04:08:20;19.27;;;7.03;;
70444;SDS011;57902;49.638;11.070;2022-12-18T04:10:47;21.33;;;7.28;;
70444;SDS011;57902;49.638;11.070;2022-12-18T04:13:21;19.98;;;7.57;;
70444;SDS011;57902;49.638;11.070;2022-12-18T04:15:53;24.27;;;7.38;;
70444;SDS011;57902;49.638;11.070;2022-12-18T04:18:20;23.45;;;8.55;;
70444;SDS011;57902;49.638;11.070;2022-12-18T04:20:46;30.45;;;9.57;;
70444;SDS011;57902;49.638;11.070;2022-12-18T04:23:12;25.58;;;7.47;;
70444;SDS011;57902;49.638;11.070;2022-12-18T04:25:39;20.45;;;6.70;;
70444;SDS011;57902;49.638;11.070;2022-12-18T04:28:05;24.73;;;8.27;;
70444;SDS011;57902;49.638;11.070;2022-12-18T04:30:32;23.63;;;7.95;;
70444;SDS011;57902;49.638;11.070;2022-12-18T04:32:58;25.98;;;8.82;;
70444;SDS011;57902;49.638;11.070;2022-12-18T04:35:25;23.58;;;8.15;;
70444;SDS011;57902;49.638;11.070;2022-12-18T04:37:51;21.13;;;7.97;;
70444;SDS011;57902;49.638;11.070;2022-12-18T04:40:18;25.65;;;8.00;;
70444;SDS011;57902;49.638;11.070;2022-12-18T04:42:44;28.67;;;9.02;;
70444;SDS011;57902;49.638;11.070;2022-12-18T04:45:11;21.67;;;7.80;;
70444;SDS011;57902;49.638;11.070;2022-12-18T04:47:37;23.23;;;8.32;;
70444;SDS011;57902;49.638;11.070;2022-12-18T04:50:04;25.45;;;8.10;;
70444;SDS011;57902;49.638;11.070;2022-12-18T04:52:31;31.23;;;9.60;;
70444;SDS011;57902;49.638;11.070;2022-12-18T04:54:57;23.20;;;7.60;;
70444;SDS011;57902;49.638;11.070;2022-12-18T04:57:23;26.08;;;9.63;;
70444;SDS011;57902;49.638;11.070;2022-12-18T04:59:50;24.60;;;8.73;;
70444;SDS011;57902;49.638;11.070;2022-12-18T05:02:16;22.77;;;7.97;;
70444;SDS011;57902;49.638;11.070;2022-12-18T05:04:43;24.63;;;8.43;;
70444;SDS011;57902;49.638;11.070;2022-12-18T05:07:09;27.08;;;8.32;;
70444;SDS011;57902;49.638;11.070;2022-12-18T05:09:36;25.88;;;9.07;;
70444;SDS011;57902;49.638;11.070;2022-12-18T05:12:02;40.58;;;9.25;;
70444;SDS011;57902;49.638;11.070;2022-12-18T05:14:29;23.73;;;8.77;;
70444;SDS011;57902;49.638;11.070;2022-12-18T05:16:55;32.80;;;9.57;;
70444;SDS011;57902;49.638;11.070;2022-12-18T05:19:26;28.30;;;9.48;;
70444;SDS011;57902;49.638;11.070;2022-12-18T05:21:52;23.00;;;8.13;;
70444;SDS011;57902;49.638;11.070;2022-12-18T05:24:19;23.15;;;8.35;;
70444;SDS011;57902;49.638;11.070;2022-12-18T05:26:45;24.75;;;7.57;;
70444;SDS011;57902;49.638;11.070;2022-12-18T05:29:12;24.17;;;9.02;;
70444;SDS011;57902;49.638;11.070;2022-12-18T05:31:39;27.20;;;9.38;;
70444;SDS011;57902;49.638;11.070;2022-12-18T05:34:07;25.42;;;9.27;;
70444;SDS011;57902;49.638;11.070;2022-12-18T05:36:33;26.13;;;8.45;;
70444;SDS011;57902;49.638;11.070;2022-12-18T05:39:00;20.88;;;7.05;;
70444;SDS011;57902;49.638;11.070;2022-12-18T05:41:26;26.13;;;7.40;;
70444;SDS011;57902;49.638;11.070;2022-12-18T05:43:53;30.63;;;9.50;;
70444;SDS011;57902;49.638;11.070;2022-12-18T05:46:19;24.80;;;7.60;;
70444;SDS011;57902;49.638;11.070;2022-12-18T05:48:46;28.85;;;9.10;;
70444;SDS011;57902;49.638;11.070;2022-12-18T05:51:15;22.77;;;6.97;;
70444;SDS011;57902;49.638;11.070;2022-12-18T05:53:43;23.75;;;7.72;;
70444;SDS011;57902;49.638;11.070;2022-12-18T05:56:11;25.77;;;7.85;;
70444;SDS011;57902;49.638;11.070;2022-12-18T05:58:39;32.65;;;8.55;;
70444;SDS011;57902;49.638;11.070;2022-12-18T06:01:14;28.92;;;8.68;;
70444;SDS011;57902;49.638;11.070;2022-12-18T06:03:45;27.70;;;7.95;;
70444;SDS011;57902;49.638;11.070;2022-12-18T06:06:16;21.95;;;7.38;;
70444;SDS011;57902;49.638;11.070;2022-12-18T06:08:45;21.75;;;7.25;;
70444;SDS011;57902;49.638;11.070;2022-12-18T06:11:12;27.80;;;7.68;;
70444;SDS011;57902;49.638;11.070;2022-12-18T06:13:39;21.33;;;6.25;;
70444;SDS011;57902;49.638;11.070;2022-12-18T06:16:06;29.20;;;8.52;;
70444;SDS011;57902;49.638;11.070;2022-12-18T06:18:33;27.77;;;8.07;;
70444;SDS011;57902;49.638;11.070;2022-12-18T06:20:59;25.48;;;9.05;;
70444;SDS011;57902;49.638;11.070;2022-12-18T06:23:26;30.98;;;7.97;;
70444;SDS011;57902;49.638;11.070;2022-12-18T06:25:52;31.83;;;8.15;;
70444;SDS011;57902;49.638;11.070;2022-12-18T06:28:19;24.92;;;7.55;;
70444;SDS011;57902;49.638;11.070;2022-12-18T06:30:46;30.48;;;9.43;;
70444;SDS011;57902;49.638;11.070;2022-12-18T06:33:14;28.35;;;9.10;;
70444;SDS011;57902;49.638;11.070;2022-12-18T06:35:41;28.60;;;8.40;;
70444;SDS011;57902;49.638;11.070;2022-12-18T06:38:08;36.25;;;10.27;;
70444;SDS011;57902;49.638;11.070;2022-12-18T06:40:36;24.40;;;8.00;;
70444;SDS011;57902;49.638;11.070;2022-12-18T06:43:04;31.75;;;8.73;;
70444;SDS011;57902;49.638;11.070;2022-12-18T06:45:31;30.35;;;8.52;;
70444;SDS011;57902;49.638;11.070;2022-12-18T06:47:57;29.25;;;9.55;;
70444;SDS011;57902;49.638;11.070;2022-12-18T06:50:24;33.10;;;8.13;;
70444;SDS011;57902;49.638;11.070;2022-12-18T06:52:50;30.40;;;8.40;;
70444;SDS011;57902;49.638;11.070;2022-12-18T06:55:17;28.08;;;7.85;;
70444;SDS011;57902;49.638;11.070;2022-12-18T06:57:43;33.22;;;8.63;;
70444;SDS011;57902;49.638;11.070;2022-12-18T07:00:10;27.30;;;8.25;;
70444;SDS011;57902;49.638;11.070;2022-12-18T07:02:37;27.13;;;8.55;;
70444;SDS011;57902;49.638;11.070;2022-12-18T07:05:03;37.45;;;8.43;;
70444;SDS011;57902;49.638;11.070;2022-12-18T07:07:36;28.65;;;8.20;;
70444;SDS011;57902;49.638;11.070;2022-12-18T07:10:02;30.38;;;7.95;;
70444;SDS011;57902;49.638;11.070;2022-12-18T07:12:29;35.08;;;8.35;;
70444;SDS011;57902;49.638;11.070;2022-12-18T07:14:56;26.33;;;8.18;;
70444;SDS011;57902;49.638;11.070;2022-12-18T07:17:22;26.63;;;8.63;;
70444;SDS011;57902;49.638;11.070;2022-12-18T07:19:48;23.48;;;7.55;;
70444;SDS011;57902;49.638;11.070;2022-12-18T07:22:15;26.45;;;8.30;;
70444;SDS011;57902;49.638;11.070;2022-12-18T07:24:41;33.58;;;9.77;;
70444;SDS011;57902;49.638;11.070;2022-12-18T07:27:08;30.90;;;8.27;;
70444;SDS011;57902;49.638;11.070;2022-12-18T07:29:35;25.10;;;7.60;;
70444;SDS011;57902;49.638;11.070;2022-12-18T07:32:03;25.67;;;7.50;;
70444;SDS011;57902;49.638;11.070;2022-12-18T07:34:29;32.00;;;9.20;;
70444;SDS011;57902;49.638;11.070;2022-12-18T07:36:56;30.75;;;8.90;;
70444;SDS011;57902;49.638;11.070;2022-12-18T07:39:22;27.80;;;8.05;;
70444;SDS011;57902;49.638;11.070;2022-12-18T07:41:49;27.15;;;8.18;;
70444;SDS011;57902;49.638;11.070;2022-12-18T07:44:35;27.25;;;7.55;;
70444;SDS011;57902;49.638;11.070;2022-12-18T07:47:02;25.27;;;7.28;;
70444;SDS011;57902;49.638;11.070;2022-12-18T07:49:36;27.65;;;8.13;;
70444;SDS011;57902;49.638;11.070;2022-12-18T07:52:03;25.35;;;7.82;;
70444;SDS011;57902;49.638;11.070;2022-12-18T07:54:29;20.58;;;6.78;;
70444;SDS011;57902;49.638;11.070;2022-12-18T07:56:56;31.50;;;7.95;;
70444;SDS011;57902;49.638;11.070;2022-12-18T07:59:22;26.35;;;8.52;;
70444;SDS011;57902;49.638;11.070;2022-12-18T08:01:49;27.10;;;7.95;;
70444;SDS011;57902;49.638;11.070;2022-12-18T08:04:15;30.23;;;8.50;;
70444;SDS011;57902;49.638;11.070;2022-12-18T08:06:42;28.60;;;8.15;;
70444;SDS011;57902;49.638;11.070;2022-12-18T08:09:13;29.80;;;7.97;;
70444;SDS011;57902;49.638;11.070;2022-12-18T08:11:39;27.63;;;7.85;;
70444;SDS011;57902;49.638;11.070;2022-12-18T08:14:06;28.52;;;8.27;;
70444;SDS011;57902;49.638;11.070;2022-12-18T08:16:32;31.88;;;8.90;;
70444;SDS011;57902;49.638;11.070;2022-12-18T08:18:59;31.48;;;8.27;;
70444;SDS011;57902;49.638;11.070;2022-12-18T08:21:27;27.50;;;8.20;;
70444;SDS011;57902;49.638;11.070;2022-12-18T08:23:56;24.45;;;7.75;;
70444;SDS011;57902;49.638;11.070;2022-12-18T08:26:24;23.80;;;7.90;;
70444;SDS011;57902;49.638;11.070;2022-12-18T08:28:53;30.58;;;8.90;;
70444;SDS011;57902;49.638;11.070;2022-12-18T08:31:22;30.45;;;9.40;;
70444;SDS011;57902;49.638;11.070;2022-12-18T08:33:50;31.45;;;8.05;;
70444;SDS011;57902;49.638;11.070;2022-12-18T08:36:17;33.78;;;7.75;;
70444;SDS011;57902;49.638;11.070;2022-12-18T08:38:45;29.50;;;7.78;;
70444;SDS011;57902;49.638;11.070;2022-12-18T08:41:13;29.83;;;8.27;;
70444;SDS011;57902;49.638;11.070;2022-12-18T08:43:41;31.63;;;8.55;;
70444;SDS011;57902;49.638;11.070;2022-12-18T08:46:27;38.28;;;8.77;;
70444;SDS011;57902;49.638;11.070;2022-12-18T08:49:00;29.20;;;8.07;;
70444;SDS011;57902;49.638;11.070;2022-12-18T08:51:27;24.75;;;7.68;;
70444;SDS011;57902;49.638;11.070;2022-12-18T08:53:54;25.33;;;8.68;;
70444;SDS011;57902;49.638;11.070;2022-12-18T08:56:20;23.35;;;7.22;;
70444;SDS011;57902;49.638;11.070;2022-12-18T08:58:47;28.55;;;8.13;;
70444;SDS011;57902;49.638;11.070;2022-12-18T09:01:13;29.33;;;8.95;;
70444;SDS011;57902;49.638;11.070;2022-12-18T09:03:40;31.33;;;9.15;;
70444;SDS011;57902;49.638;11.070;2022-12-18T09:06:08;30.55;;;9.07;;
70444;SDS011;57902;49.638;11.070;2022-12-18T09:08:34;30.10;;;10.13;;
70444;SDS011;57902;49.638;11.070;2022-12-18T09:11:02;40.00;;;13.43;;
70444;SDS011;57902;49.638;11.070;2022-12-18T09:13:29;63.13;;;18.48;;
70444;SDS011;57902;49.638;11.070;2022-12-18T09:15:56;38.33;;;11.93;;
70444;SDS011;57902;49.638;11.070;2022-12-18T09:18:22;36.40;;;10.63;;
70444;SDS011;57902;49.638;11.070;2022-12-18T09:20:49;31.33;;;8.18;;
70444;SDS011;57902;49.638;11.070;2022-12-18T09:23:19;26.75;;;7.68;;
70444;SDS011;57902;49.638;11.070;2022-12-18T09:25:47;30.58;;;9.38;;
70444;SDS011;57902;49.638;11.070;2022-12-18T09:28:14;29.88;;;8.25;;
70444;SDS011;57902;49.638;11.070;2022-12-18T09:30:46;25.75;;;7.93;;
70444;SDS011;57902;49.638;11.070;2022-12-18T09:33:15;27.08;;;7.65;;
70444;SDS011;57902;49.638;11.070;2022-12-18T09:35:43;25.48;;;7.18;;
70444;SDS011;57902;49.638;11.070;2022-12-18T09:38:12;28.92;;;8.35;;
70444;SDS011;57902;49.638;11.070;2022-12-18T09:40:51;29.10;;;8.40;;
70444;SDS011;57902;49.638;11.070;2022-12-18T09:43:20;26.00;;;8.02;;
70444;SDS011;57902;49.638;11.070;2022-12-18T09:45:55;22.02;;;6.78;;
70444;SDS011;57902;49.638;11.070;2022-12-18T09:48:32;25.35;;;7.22;;
70444;SDS011;57902;49.638;11.070;2022-12-18T09:51:06;29.73;;;8.13;;
70444;SDS011;57902;49.638;11.070;2022-12-18T09:53:47;27.55;;;7.43;;
70444;SDS011;57902;49.638;11.070;2022-12-18T09:56:19;32.78;;;7.55;;
70444;SDS011;57902;49.638;11.070;2022-12-18T10:01:21;28.60;;;6.93;;
70444;SDS011;57902;49.638;11.070;2022-12-18T10:03:49;26.55;;;8.00;;
70444;SDS011;57902;49.638;11.070;2022-12-18T10:11:34;28.73;;;7.57;;
70444;SDS011;57902;49.638;11.070;2022-12-18T10:14:13;29.80;;;7.97;;
70444;SDS011;57902;49.638;11.070;2022-12-18T10:22:52;28.48;;;7.88;;
70444;SDS011;57902;49.638;11.070;2022-12-18T10:28:15;26.15;;;7.00;;
70444;SDS011;57902;49.638;11.070;2022-12-18T10:30:43;26.23;;;8.85;;
70444;SDS011;57902;49.638;11.070;2022-12-18T10:33:16;23.15;;;7.80;;
70444;SDS011;57902;49.638;11.070;2022-12-18T10:35:45;28.38;;;8.07;;
70444;SDS011;57902;49.638;11.070;2022-12-18T10:40:51;27.27;;;7.55;;
70444;SDS011;57902;49.638;11.070;2022-12-18T10:43:23;28.02;;;7.45;;
70444;SDS011;57902;49.638;11.070;2022-12-18T10:46:05;29.42;;;8.73;;
70444;SDS011;57902;49.638;11.070;2022-12-18T10:51:46;28.65;;;7.55;;
70444;SDS011;57902;49.638;11.070;2022-12-18T10:54:06;30.45;;;7.07;;
70444;SDS011;57902;49.638;11.070;2022-12-18T10:56:42;26.60;;;8.52;;
70444;SDS011;57902;49.638;11.070;2022-12-18T10:59:10;23.75;;;7.47;;
70444;SDS011;57902;49.638;11.070;2022-12-18T11:01:49;28.88;;;7.45;;
70444;SDS011;57902;49.638;11.070;2022-12-18T11:06:58;28.35;;;7.65;;
70444;SDS011;57902;49.638;11.070;2022-12-18T11:11:58;28.42;;;8.15;;
70444;SDS011;57902;49.638;11.070;2022-12-18T11:14:33;31.83;;;8.50;;
70444;SDS011;57902;49.638;11.070;2022-12-18T11:17:21;24.92;;;7.60;;
70444;SDS011;57902;49.638;11.070;2022-12-18T11:19:54;28.25;;;8.63;;
70444;SDS011;57902;49.638;11.070;2022-12-18T11:22:29;25.27;;;8.75;;
70444;SDS011;57902;49.638;11.070;2022-12-18T11:24:59;27.02;;;7.95;;
70444;SDS011;57902;49.638;11.070;2022-12-18T11:27:48;29.58;;;8.30;;
70444;SDS011;57902;49.638;11.070;2022-12-18T11:30:22;26.80;;;7.15;;
70444;SDS011;57902;49.638;11.070;2022-12-18T11:33:17;28.98;;;8.90;;
70444;SDS011;57902;49.638;11.070;2022-12-18T11:35:53;24.27;;;7.45;;
70444;SDS011;57902;49.638;11.070;2022-12-18T11:38:31;23.98;;;7.57;;
70444;SDS011;57902;49.638;11.070;2022-12-18T11:43:52;22.98;;;7.32;;
70444;SDS011;57902;49.638;11.070;2022-12-18T11:46:32;27.92;;;8.02;;
70444;SDS011;57902;49.638;11.070;2022-12-18T11:54:52;26.33;;;8.38;;
70444;SDS011;57902;49.638;11.070;2022-12-18T12:00:30;32.22;;;8.63;;
70444;SDS011;57902;49.638;11.070;2022-12-18T12:16:57;26.80;;;7.63;;
70444;SDS011;57902;49.638;11.070;2022-12-18T12:19:47;22.80;;;7.43;;
70444;SDS011;57902;49.638;11.070;2022-12-18T12:25:28;26.35;;;7.72;;
70444;SDS011;57902;49.638;11.070;2022-12-18T12:38:54;21.13;;;6.80;;
70444;SDS011;57902;49.638;11.070;2022-12-18T12:41:24;28.23;;;7.88;;
70444;SDS011;57902;49.638;11.070;2022-12-18T12:44:17;24.35;;;6.88;;
70444;SDS011;57902;49.638;11.070;2022-12-18T12:46:49;26.15;;;7.35;;
70444;SDS011;57902;49.638;11.070;2022-12-18T12:49:19;23.58;;;7.10;;
70444;SDS011;57902;49.638;11.070;2022-12-18T12:51:59;24.40;;;6.90;;
70444;SDS011;57902;49.638;11.070;2022-12-18T12:54:31;24.33;;;7.38;;
70444;SDS011;57902;49.638;11.070;2022-12-18T12:57:15;22.50;;;7.20;;
70444;SDS011;57902;49.638;11.070;2022-12-18T12:59:57;24.30;;;7.13;;
70444;SDS011;57902;49.638;11.070;2022-12-18T13:05:38;26.70;;;7.70;;
70444;SDS011;57902;49.638;11.070;2022-12-18T13:12:04;23.75;;;6.82;;
70444;SDS011;57902;49.638;11.070;2022-12-18T13:15:20;24.05;;;7.28;;
70444;SDS011;57902;49.638;11.070;2022-12-18T13:17:49;23.02;;;6.82;;
70444;SDS011;57902;49.638;11.070;2022-12-18T13:23:29;20.17;;;6.95;;
70444;SDS011;57902;49.638;11.070;2022-12-18T13:31:00;24.85;;;8.02;;
70444;SDS011;57902;49.638;11.070;2022-12-18T13:33:36;21.98;;;6.93;;
70444;SDS011;57902;49.638;11.070;2022-12-18T13:36:31;24.52;;;8.45;;
70444;SDS011;57902;49.638;11.070;2022-12-18T13:39:10;23.70;;;7.45;;
70444;SDS011;57902;49.638;11.070;2022-12-18T13:44:38;26.67;;;7.35;;
70444;SDS011;57902;49.638;11.070;2022-12-18T13:50:12;23.60;;;7.13;;
70444;SDS011;57902;49.638;11.070;2022-12-18T13:52:49;23.05;;;7.22;;
70444;SDS011;57902;49.638;11.070;2022-12-18T13:55:17;23.38;;;7.68;;
70444;SDS011;57902;49.638;11.070;2022-12-18T13:57:48;23.85;;;7.13;;
70444;SDS011;57902;49.638;11.070;2022-12-18T14:00:24;21.55;;;7.97;;
70444;SDS011;57902;49.638;11.070;2022-12-18T14:02:55;24.45;;;6.95;;
70444;SDS011;57902;49.638;11.070;2022-12-18T14:07:49;21.63;;;6.80;;
70444;SDS011;57902;49.638;11.070;2022-12-18T14:13:06;19.75;;;5.80;;
70444;SDS011;57902;49.638;11.070;2022-12-18T14:15:35;24.30;;;7.07;;
70444;SDS011;57902;49.638;11.070;2022-12-18T14:18:18;21.95;;;6.95;;
70444;SDS011;57902;49.638;11.070;2022-12-18T14:20:45;22.50;;;6.68;;
70444;SDS011;57902;49.638;11.070;2022-12-18T14:23:34;23.50;;;6.78;;
70444;SDS011;57902;49.638;11.070;2022-12-18T14:26:03;26.67;;;8.07;;
70444;SDS011;57902;49.638;11.070;2022-12-18T14:28:47;21.50;;;6.50;;
70444;SDS011;57902;49.638;11.070;2022-12-18T14:31:21;23.73;;;7.70;;
70444;SDS011;57902;49.638;11.070;2022-12-18T14:33:50;24.05;;;7.32;;
70444;SDS011;57902;49.638;11.070;2022-12-18T14:36:19;21.02;;;7.32;;
70444;SDS011;57902;49.638;11.070;2022-12-18T14:38:53;26.35;;;7.38;;
70444;SDS011;57902;49.638;11.070;2022-12-18T14:41:21;22.65;;;7.20;;
70444;SDS011;57902;49.638;11.070;2022-12-18T14:43:52;23.05;;;7.63;;
70444;SDS011;57902;49.638;11.070;2022-12-18T14:49:00;22.20;;;6.72;;
70444;SDS011;57902;49.638;11.070;2022-12-18T14:51:31;20.92;;;6.15;;
70444;SDS011;57902;49.638;11.070;2022-12-18T14:54:00;22.05;;;6.28;;
70444;SDS011;57902;49.638;11.070;2022-12-18T14:56:30;21.55;;;6.32;;
70444;SDS011;57902;49.638;11.070;2022-12-18T14:58:59;17.58;;;6.32;;
70444;SDS011;57902;49.638;11.070;2022-12-18T15:01:27;22.33;;;6.70;;
70444;SDS011;57902;49.638;11.070;2022-12-18T15:03:57;19.88;;;6.80;;
70444;SDS011;57902;49.638;11.070;2022-12-18T15:06:32;23.25;;;7.18;;
70444;SDS011;57902;49.638;11.070;2022-12-18T15:09:02;21.55;;;6.25;;
70444;SDS011;57902;49.638;11.070;2022-12-18T15:14:21;15.75;;;6.15;;
70444;SDS011;57902;49.638;11.070;2022-12-18T15:19:27;21.67;;;6.63;;
70444;SDS011;57902;49.638;11.070;2022-12-18T15:22:00;27.92;;;7.85;;
70444;SDS011;57902;49.638;11.070;2022-12-18T15:24:32;24.75;;;7.18;;
70444;SDS011;57902;49.638;11.070;2022-12-18T15:26:59;23.52;;;6.78;;
70444;SDS011;57902;49.638;11.070;2022-12-18T15:29:26;19.58;;;6.22;;
70444;SDS011;57902;49.638;11.070;2022-12-18T15:32:03;19.50;;;6.80;;
70444;SDS011;57902;49.638;11.070;2022-12-18T15:34:31;19.35;;;7.15;;
70444;SDS011;57902;49.638;11.070;2022-12-18T15:37:00;19.45;;;6.10;;
70444;SDS011;57902;49.638;11.070;2022-12-18T15:39:26;21.13;;;7.18;;
70444;SDS011;57902;49.638;11.070;2022-12-18T15:41:53;25.00;;;7.28;;
70444;SDS011;57902;49.638;11.070;2022-12-18T15:44:39;20.58;;;6.63;;
70444;SDS011;57902;49.638;11.070;2022-12-18T15:47:10;31.25;;;6.55;;
70444;SDS011;57902;49.638;11.070;2022-12-18T15:49:38;19.55;;;6.90;;
70444;SDS011;57902;49.638;11.070;2022-12-18T15:52:05;18.98;;;6.13;;
70444;SDS011;57902;49.638;11.070;2022-12-18T15:54:32;22.02;;;6.50;;
70444;SDS011;57902;49.638;11.070;2022-12-18T15:57:17;18.73;;;5.93;;
70444;SDS011;57902;49.638;11.070;2022-12-18T15:59:50;19.38;;;6.35;;
70444;SDS011;57902;49.638;11.070;2022-12-18T16:02:19;21.20;;;7.05;;
70444;SDS011;57902;49.638;11.070;2022-12-18T16:04:49;18.55;;;6.50;;
70444;SDS011;57902;49.638;11.070;2022-12-18T16:07:18;21.63;;;6.30;;
70444;SDS011;57902;49.638;11.070;2022-12-18T16:09:50;23.45;;;6.93;;
70444;SDS011;57902;49.638;11.070;2022-12-18T16:12:17;19.45;;;6.63;;
70444;SDS011;57902;49.638;11.070;2022-12-18T16:14:47;21.25;;;7.20;;
70444;SDS011;57902;49.638;11.070;2022-12-18T16:17:14;22.45;;;7.03;;
70444;SDS011;57902;49.638;11.070;2022-12-18T16:19:40;22.90;;;7.32;;
70444;SDS011;57902;49.638;11.070;2022-12-18T16:22:11;24.75;;;7.50;;
70444;SDS011;57902;49.638;11.070;2022-12-18T16:24:54;19.83;;;6.50;;
70444;SDS011;57902;49.638;11.070;2022-12-18T16:27:22;19.67;;;7.22;;
70444;SDS011;57902;49.638;11.070;2022-12-18T16:29:49;24.77;;;7.22;;
70444;SDS011;57902;49.638;11.070;2022-12-18T16:32:17;21.90;;;6.95;;
70444;SDS011;57902;49.638;11.070;2022-12-18T16:34:45;21.95;;;7.60;;
70444;SDS011;57902;49.638;11.070;2022-12-18T16:37:12;19.88;;;6.65;;
70444;SDS011;57902;49.638;11.070;2022-12-18T16:39:40;19.95;;;6.40;;
70444;SDS011;57902;49.638;11.070;2022-12-18T16:42:14;17.33;;;6.93;;
70444;SDS011;57902;49.638;11.070;2022-12-18T16:44:45;23.45;;;7.93;;
70444;SDS011;57902;49.638;11.070;2022-12-18T16:47:13;19.77;;;6.65;;
70444;SDS011;57902;49.638;11.070;2022-12-18T16:49:40;24.02;;;7.72;;
70444;SDS011;57902;49.638;11.070;2022-12-18T16:52:07;24.45;;;7.43;;
70444;SDS011;57902;49.638;11.070;2022-12-18T16:54:33;19.35;;;6.57;;
70444;SDS011;57902;49.638;11.070;2022-12-18T16:57:02;23.13;;;7.18;;
70444;SDS011;57902;49.638;11.070;2022-12-18T16:59:30;21.77;;;7.72;;